Portada
METAR-TAF:

METAR-TAF

Aeroports :

Hay River, Territoris del Nord-oest, Canadà

latitud: 60-50N, longitud: 115-47W, altitud: 164 m

Observació

L'informe es va fer fa 56 minuts, a les 00:00 UTC
Vent 8 kt del Nord-Oest
Temperatura 10°C
Humitat 46%
Pressió 1012 hPa
Visibilitat: 24.1 km
Escasses núvols a una alçada de 4000 ft
Núvols disperses a una alçada de 6500 ft
Cel ennuvolat a una alçada de 8000 ft
Cel ennuvolat a una alçada de 21000 ft

METAR: CYHY 170000Z 32008KT 15SM FEW040 SCT065 BKN080 BKN210 10/M01 A2988 RMK CU1SC2AC2CI1 SLP127

Hora: 18:56 (00:56 UTC)

Pronòstic

L'informe es va fer fa 1 hora i 16 minuts, a les 23:40 UTC
Pronòstic vàlid del 17 a les 00 UTC al 17 a les 12 UTC
Vent 3 kt amb direcció variable
Visibilitat: 10 km
Cel ennuvolat a una alçada de 8000 ft
A partir de les 17 a les 0400 UTC
Vent 8 kt del Nord-Oest
Visibilitat: 10 km
Escasses núvols a una alçada de 8000 ft

TAF: CYHY 162340Z 1700/1712 VRB03KT P6SM BKN080 FM170400 32008KT P6SM FEW080 RMK NXT FCST BY 170600Z

Observacions i pronòstics meteorològics de més de 4000 aeroports (METAR i TAF).

Les estacions disponibles són els punts grocs i vermells al mapa.

Posi el ratolí al punt desitjat per veure el nom de l'estació.

Feu clic per veure les observacions i els pronòstics meteorològics.

Per canviar el mapa: feu clic els botons verds amb una creu de color negre per apropar; al botó verd amb un guió per allunyar la imatge; o en les fletxes verdes per a mapes adjacents.


METAR-TAF: